Latest Weather Observations for Kempsey Airport

IDN60801

Issued at 3:03 pm EDT Monday 8 February 2016 (issued every 30 minutes, with the page automatically refreshed every 10 minutes)

About weather observations | Map of weather stations | Latest weather observations for NSW | Other Formats
Station Details ID: 059007 Name: KEMPSEY AIRPORT AWS Lat: -31.07 Lon: 152.77 Height: 13.0 m
Data from the previous 72 hours. | See also: Recent months at Kempsey Airport
Date/Time
EDT
Temp
°C
App
Temp
°C
Dew
Point
Rel
Hum
%
Delta-T
°C
Wind Press
QNH
hPa
Press
MSL
hPa
Rain
since 9 am
mm
Dir
 
Spd
km/h
Gust
km/h
Spd
kts
Gust
kts
08/03:00pm 26.8 24.8 18.4 60 5.3 SE 26 32 14 17 1015.9 1015.8 0.0
08/02:30pm 27.3 26.9 18.9 60 5.4 SSE 19 30 10 16 1016.2 1016.1 0.0
08/02:00pm 26.6 27.1 20.0 67 4.3 SSE 17 28 9 15 1016.5 1016.4 0.0
08/01:30pm 25.2 25.2 18.9 68 4.0 SSE 17 24 9 13 1016.8 1016.7 0.0
08/01:00pm 25.8 24.9 18.2 63 4.8 SSE 20 33 11 18 1017.0 1016.9 0.0
08/12:30pm 25.3 23.9 18.0 64 4.6 S 22 32 12 17 1017.3 1017.2 0.0
08/12:00pm 25.3 25.0 18.2 64 4.5 SSW 17 28 9 15 1017.4 1017.3 0.0
08/11:30am 25.1 23.9 18.5 67 4.2 SW 22 30 12 16 1017.9 1017.8 0.0
08/11:00am 22.8 21.3 18.6 77 2.6 SSW 24 33 13 18 1018.1 1018.0 0.0
08/10:49am 23.0 19.8 17.2 70 3.6 S 30 43 16 23 1018.1 1018.0 0.0
08/10:30am 25.9 25.7 19.3 67 4.2 S 19 26 10 14 1017.6 1017.5 0.0
08/10:00am 24.5 23.9 17.5 65 4.4 SSW 17 24 9 13 1017.5 1017.4 0.0
08/09:30am 23.3 24.0 17.1 68 3.8 SW 9 19 5 10 1017.5 1017.4 0.0
08/09:00am 21.2 21.7 16.6 75 2.8 WNW 9 11 5 6 1017.3 1017.2 0.2
08/08:30am 20.0 20.2 16.8 82 1.9 W 11 15 6 8 1017.3 1017.2 0.2
08/08:00am 18.5 18.2 15.4 82 1.8 W 11 17 6 9 1017.2 1017.1 0.2
08/07:30am 17.2 16.7 15.0 87 1.3 W 11 15 6 8 1017.0 1016.9 0.2
08/07:00am 16.2 16.4 14.7 91 0.9 W 7 11 4 6 1016.8 1016.7 0.2
08/06:30am 15.4 14.9 13.9 91 0.8 W 9 13 5 7 1016.6 1016.5 0.2
08/06:00am 15.2 15.2 13.7 91 0.8 W 6 9 3 5 1016.4 1016.3 0.2
08/05:30am 15.2 15.0 13.6 90 0.9 W 7 9 4 5 1016.2 1016.1 0.2
08/05:00am 15.4 16.2 13.6 89 1.0 W 2 9 1 5 1016.1 1016.0 0.2
08/04:30am 16.1 16.2 14.5 90 0.9 W 7 11 4 6 1016.0 1015.9 0.2
08/04:00am 16.2 15.9 14.4 89 1.0 W 9 11 5 6 1016.0 1015.9 0.2
08/03:30am 16.4 15.1 14.8 90 0.9 WNW 15 19 8 10 1016.0 1015.9 0.2
08/03:00am 16.5 15.6 14.9 90 0.9 W 13 17 7 9 1016.2 1016.1 0.2
08/02:30am 16.4 16.3 14.9 91 0.9 W 9 13 5 7 1016.5 1016.4 0.2
08/02:00am 15.6 16.5 14.1 91 0.8 WSW 2 9 1 5 1016.7 1016.6 0.2
08/01:30am 15.6 16.5 14.0 90 0.9 SW 2 6 1 3 1017.1 1017.0 0.2
08/01:00am 16.2 16.5 14.6 90 0.9 WSW 6 9 3 5 1017.4 1017.3 0.2
08/12:30am 16.0 17.4 14.4 90 0.9 CALM 0 0 0 0 1017.6 1017.5 0.2
08/12:00am 16.4 17.8 14.4 88 1.1 CALM 0 0 0 0 1017.7 1017.6 0.2
 
Date/Time
EDT
Temp
°C
App
Temp
°C
Dew
Point
Rel
Hum
%
Delta-T
°C
Wind Press
QNH
hPa
Press
MSL
hPa
Rain
since 9 am
mm
Dir
 
Spd
km/h
Gust
km/h
Spd
kts
Gust
kts
07/11:30pm 16.8 17.0 14.6 87 1.3 W 7 9 4 5 1017.9 1017.8 0.2
07/11:00pm 17.1 18.6 14.7 86 1.4 CALM 0 6 0 3 1017.8 1017.7 0.2
07/10:30pm 17.1 17.1 14.2 83 1.7 WSW 7 9 4 5 1017.9 1017.8 0.2
07/10:00pm 18.2 18.5 14.9 81 1.9 WSW 7 9 4 5 1017.7 1017.6 0.2
07/09:30pm 18.0 17.7 14.5 80 2.0 WSW 9 11 5 6 1017.6 1017.5 0.2
07/09:00pm 18.7 18.4 14.4 76 2.5 WSW 9 9 5 5 1017.2 1017.1 0.2
07/08:30pm 19.7 19.5 14.7 73 2.9 W 9 11 5 6 1016.9 1016.8 0.2
07/08:00pm 20.7 21.0 14.4 67 3.7 S 6 9 3 5 1016.4 1016.3 0.2
07/07:30pm 22.1 21.3 14.0 60 4.7 SSE 11 15 6 8 1016.0 1015.9 0.2
07/07:00pm 23.5 21.7 14.5 57 5.3 SSE 17 22 9 12 1015.6 1015.5 0.2
07/06:30pm 24.6 23.0 15.0 55 5.7 SSE 17 22 9 12 1015.3 1015.2 0.2
07/06:00pm 24.8 23.2 14.9 54 5.9 SE 17 26 9 14 1015.1 1015.0 0.2
07/05:30pm 25.3 23.8 16.2 57 5.6 SE 19 26 10 14 1014.8 1014.7 0.2
07/05:00pm 25.9 23.8 16.2 55 5.9 SE 22 30 12 16 1014.7 1014.6 0.2
07/04:30pm 25.8 24.8 16.6 56 5.7 SE 17 30 9 16 1014.8 1014.7 0.2
07/04:00pm 26.6 25.6 16.5 54 6.2 SSE 17 28 9 15 1014.8 1014.7 0.2
07/03:30pm 25.3 23.3 15.6 55 5.9 SSE 20 28 11 15 1015.1 1015.0 0.2
07/03:00pm 25.9 25.2 17.3 59 5.4 SE 17 24 9 13 1015.2 1015.1 0.2
07/02:30pm 25.6 23.8 15.6 54 6.1 S 19 26 10 14 1015.3 1015.2 0.2
07/02:00pm 26.5 26.0 17.0 56 5.9 SSE 15 24 8 13 1015.3 1015.2 0.2
07/01:30pm 27.2 26.7 17.9 56 5.9 S 17 24 9 13 1015.5 1015.4 0.2
07/01:00pm 26.8 25.7 17.8 57 5.7 S 20 33 11 18 1015.7 1015.6 0.2
07/12:30pm 26.6 25.7 16.8 55 6.1 S 17 24 9 13 1016.0 1015.9 0.2
07/12:00pm 25.8 24.8 16.6 56 5.7 S 17 24 9 13 1016.4 1016.3 0.2
07/11:30am 24.6 23.3 15.8 58 5.3 S 17 24 9 13 1016.7 1016.6 0.0
07/11:00am 24.3 23.0 15.8 59 5.1 S 17 22 9 12 1016.9 1016.8 0.0
07/10:30am 24.3 23.3 16.6 62 4.7 S 17 28 9 15 1016.9 1016.8 0.0
07/10:00am 24.1 23.3 16.1 61 4.9 SSW 15 24 8 13 1016.8 1016.7 0.0
07/09:30am 23.9 22.9 16.7 64 4.4 SSW 17 24 9 13 1017.0 1016.9 0.0
07/09:00am 21.2 21.6 16.4 74 2.9 WNW 9 13 5 7 1017.0 1016.9 1.6
07/08:30am 20.0 20.6 15.8 77 2.5 WNW 7 11 4 6 1016.8 1016.7 1.6
07/08:00am 18.8 19.1 16.0 84 1.7 W 9 11 5 6 1016.4 1016.3 1.6
07/07:30am 18.0 18.2 15.8 87 1.3 WNW 9 11 5 6 1016.2 1016.1 1.6
07/07:00am 17.4 19.1 15.2 87 1.3 CALM 0 0 0 0 1015.7 1015.6 1.6
07/06:30am 17.3 17.3 15.1 87 1.3 WNW 9 11 5 6 1015.4 1015.3 1.6
07/06:00am 17.2 17.5 15.0 87 1.3 WNW 7 13 4 7 1015.3 1015.2 1.6
07/05:30am 17.2 17.5 15.0 87 1.3 W 7 9 4 5 1015.1 1015.0 1.6
07/05:00am 17.3 17.8 15.1 87 1.3 W 6 9 3 5 1015.0 1014.9 1.6
07/04:30am 17.4 17.3 15.0 86 1.4 W 9 11 5 6 1015.0 1014.9 1.6
07/04:00am 17.0 18.2 15.0 88 1.2 SW 2 7 1 4 1014.9 1014.8 1.6
07/03:30am 16.6 16.8 14.8 89 1.0 WSW 7 9 4 5 1014.8 1014.7 1.6
07/03:00am 17.0 18.7 15.2 89 1.0 CALM 0 0 0 0 1015.2 1015.1 1.6
07/02:30am 17.1 18.2 14.7 86 1.4 W 2 7 1 4 1015.5 1015.4 1.6
07/02:00am 17.6 17.5 15.0 85 1.5 WSW 9 11 5 6 1015.7 1015.6 1.6
07/01:30am 18.2 18.2 15.3 83 1.7 WSW 9 11 5 6 1015.8 1015.7 1.6
07/01:00am 18.6 18.6 15.3 81 1.9 W 9 13 5 7 1016.3 1016.2 1.6
07/12:30am 18.7 18.8 15.6 82 1.8 W 9 13 5 7 1016.3 1016.2 1.6
07/12:00am 18.6 18.0 15.7 83 1.7 WSW 13 17 7 9 1016.2 1016.1 1.6
 
Date/Time
EDT
Temp
°C
App
Temp
°C
Dew
Point
Rel
Hum
%
Delta-T
°C
Wind Press
QNH
hPa
Press
MSL
hPa
Rain
since 9 am
mm
Dir
 
Spd
km/h
Gust
km/h
Spd
kts
Gust
kts
06/11:30pm 18.9 19.1 15.8 82 1.8 WSW 9 13 5 7 1016.5 1016.4 1.6
06/11:00pm 19.1 19.4 16.0 82 1.8 WSW 9 9 5 5 1016.6 1016.5 1.6
06/10:30pm 19.6 19.9 15.9 79 2.2 SW 9 13 5 7 1016.5 1016.4 1.6
06/10:00pm 19.8 20.1 16.1 79 2.2 WSW 9 13 5 7 1016.3 1016.2 1.6
06/09:30pm 20.4 20.5 16.6 79 2.3 SSW 11 17 6 9 1016.1 1016.0 1.6
06/09:00pm 20.0 20.5 16.6 81 2.0 SSW 9 13 5 7 1015.8 1015.7 1.6
06/08:30pm 20.0 20.5 16.6 81 2.1 S 9 11 5 6 1015.6 1015.5 1.6
06/08:00pm 21.0 20.8 16.8 77 2.6 SSW 13 15 7 8 1015.7 1015.6 1.6
06/07:30pm 21.6 21.1 17.0 75 2.8 S 15 19 8 10 1015.3 1015.2 1.6
06/07:00pm 22.2 20.9 16.7 71 3.4 S 19 30 10 16 1014.7 1014.6 1.6
06/06:30pm 23.1 23.3 17.6 71 3.4 S 13 20 7 11 1014.5 1014.4 1.6
06/06:00pm 22.6 23.0 18.2 76 2.8 SSE 13 17 7 9 1014.3 1014.2 1.6
06/05:30pm 22.3 21.4 18.1 77 2.6 SSE 20 28 11 15 1014.1 1014.0 1.6
06/05:00pm 22.7 21.2 17.6 73 3.2 SSW 22 30 12 16 1013.9 1013.8 1.6
06/04:30pm 24.0 22.0 17.3 66 4.2 S 24 37 13 20 1013.7 1013.6 1.6
06/04:00pm 22.8 22.1 18.3 76 2.8 SSE 19 28 10 15 1013.9 1013.8 1.6
06/03:30pm 22.3 22.9 20.2 88 1.4 S 17 24 9 13 1014.2 1014.1 1.6
06/03:00pm 22.9 22.6 18.2 75 2.9 SSE 17 22 9 12 1014.4 1014.3 0.4
06/02:30pm 22.2 22.8 19.4 84 1.8 S 15 26 8 14 1014.8 1014.7 0.4
06/02:00pm 21.1 19.9 18.5 85 1.6 SSE 22 32 12 17 1015.1 1015.0 0.4
06/01:30pm 23.8 22.0 18.7 73 3.2 S 26 37 14 20 1015.0 1014.9 0.4
06/01:00pm 23.8 22.8 18.9 74 3.1 S 22 32 12 17 1014.9 1014.8 0.4
06/12:30pm 22.7 22.2 19.1 80 2.3 SSE 20 28 11 15 1015.2 1015.1 0.4
06/12:00pm 23.4 23.5 20.3 83 2.0 S 20 30 11 16 1015.4 1015.3 0.4
06/11:30am 22.5 22.0 19.1 81 2.2 SSE 20 30 11 16 1015.4 1015.3 0.2
06/11:00am 22.9 22.7 19.3 80 2.3 SSW 19 24 10 13 1015.5 1015.4 0.2
06/10:30am 22.0 22.2 19.4 85 1.7 SW 17 26 9 14 1015.8 1015.7 0.2
06/10:00am 21.0 21.2 19.3 90 1.1 SSW 17 20 9 11 1015.7 1015.6 0.2
06/09:30am 20.4 19.7 18.2 87 1.4 SSW 19 28 10 15 1015.7 1015.6 0.0
06/09:00am 20.6 19.9 18.2 86 1.5 SSW 19 24 10 13 1015.7 1015.6 9.0
06/08:30am 20.4 20.4 18.9 91 0.9 SW 17 24 9 13 1015.5 1015.4 9.0
06/08:00am 19.4 19.2 17.5 89 1.2 SW 15 20 8 11 1015.3 1015.2 8.6
06/07:30am 19.4 18.8 17.5 89 1.2 SW 17 22 9 12 1014.9 1014.8 8.6
06/07:00am 19.2 19.0 17.5 90 1.0 SW 15 24 8 13 1014.5 1014.4 8.6
06/06:30am 19.5 19.5 17.1 86 1.5 SSW 13 19 7 10 1014.2 1014.1 7.8
06/06:00am 19.3 19.6 16.9 86 1.5 SSW 11 17 6 9 1013.9 1013.8 7.8
06/05:30am 19.4 20.5 17.2 87 1.3 S 7 13 4 7 1013.8 1013.7 7.8
06/05:00am 19.7 19.7 17.1 85 1.6 SSW 13 19 7 10 1013.5 1013.4 7.8
06/04:30am 19.4 21.5 17.2 87 1.3 SSW 2 11 1 6 1013.4 1013.3 7.8
06/04:00am 19.4 20.2 17.2 87 1.3 SSW 9 17 5 9 1013.3 1013.2 7.8
06/03:30am 19.3 20.1 17.3 88 1.2 SW 9 13 5 7 1013.4 1013.3 7.8
06/03:00am 19.4 19.9 17.4 88 1.2 SSW 11 15 6 8 1013.5 1013.4 7.8
06/02:30am 19.1 19.1 17.2 89 1.2 SW 13 19 7 10 1013.9 1013.8 7.8
06/02:00am 19.2 19.0 17.5 90 1.0 SW 15 20 8 11 1014.1 1014.0 7.8
06/01:30am 19.3 18.8 17.8 91 0.9 SSW 17 24 9 13 1014.1 1014.0 7.8
06/01:00am 19.0 19.6 17.7 92 0.8 SW 11 13 6 7 1014.6 1014.5 7.8
06/12:30am 18.8 19.2 17.3 91 0.9 SW 11 13 6 7 1014.9 1014.8 7.8
06/12:00am 19.1 19.6 17.4 90 1.0 SW 11 13 6 7 1015.0 1014.9 7.8
 
Date/Time
EDT
Temp
°C
App
Temp
°C
Dew
Point
Rel
Hum
%
Delta-T
°C
Wind Press
QNH
hPa
Press
MSL
hPa
Rain
since 9 am
mm
Dir
 
Spd
km/h
Gust
km/h
Spd
kts
Gust
kts
05/11:30pm 19.9 20.2 18.0 89 1.2 SW 13 19 7 10 1015.4 1015.3 7.8
05/11:00pm 20.0 20.1 18.3 90 1.1 SSW 15 19 8 10 1015.4 1015.3 7.8
05/10:30pm 20.0 20.5 18.3 90 1.1 SSW 13 17 7 9 1015.6 1015.5 7.8
05/10:00pm 19.9 20.4 18.4 91 0.9 SSW 13 17 7 9 1015.5 1015.4 7.8
05/09:30pm 19.9 19.7 18.4 91 0.9 S 17 24 9 13 1015.5 1015.4 7.8
05/09:00pm 19.9 20.0 18.4 91 0.9 SSW 15 20 8 11 1015.1 1015.0 7.8
05/08:30pm 19.8 19.9 18.3 91 0.9 SSW 15 24 8 13 1014.8 1014.7 7.6
05/08:00pm 19.8 20.7 18.3 91 0.9 SSW 11 15 6 8 1014.4 1014.3 6.4
05/07:30pm 20.0 19.7 18.3 90 1.1 SSW 17 26 9 14 1014.2 1014.1 4.8
05/07:00pm 19.9 19.7 18.4 91 0.9 SSW 17 24 9 13 1013.8 1013.7 4.8
05/06:30pm 20.2 19.6 18.5 90 1.1 SSW 19 30 10 16 1013.6 1013.5 4.2
05/06:00pm 20.4 19.3 18.7 90 1.1 S 22 30 12 16 1013.3 1013.2 3.8
05/05:30pm 21.3 21.3 19.0 87 1.5 S 17 26 9 14 1013.0 1012.9 3.2
05/05:00pm 21.1 20.2 19.0 88 1.3 S 22 30 12 16 1013.0 1012.9 3.2
05/04:30pm 21.6 20.7 19.0 85 1.6 S 22 32 12 17 1012.9 1012.8 2.4
05/04:00pm 22.2 21.7 19.2 83 1.9 S 20 32 11 17 1012.9 1012.8 2.4
05/03:30pm 23.4 21.7 18.9 76 2.9 S 26 39 14 21 1013.1 1013.0 2.4

Other Formats:

Comma delimited format used in spreadsheet applications
http://www.bom.gov.au/fwo/IDN60801/IDN60801.94785.axf

JavaScript Object Notation format (JSON) in row-major order
http://www.bom.gov.au/fwo/IDN60801/IDN60801.94785.json